Sydney, New South Wales

5:23 PM AEST on September 26, 2016 (GMT +1000)
Simmons Street | | Change Station

Elev 9 ft 33.85 °S, 151.19 °E | Updated 3 minutes ago

Mostly Cloudy
Mostly Cloudy
64.0 °F
Feels Like 64.0 °F
N
0.6
Wind Variable Wind from North
Gusts 2.5 mph

Today
High -- | Low -- °F
--% Chance of Precip.
Yesterday
High -- | Low -- °F
Precip. -- in
Pressure 29.83 in
Visibility 6.2 miles
Clouds Few 4500 ft
Mostly Cloudy 6500 ft
Dew Point 52 °F
Humidity 65%
Rainfall 0.00 in
Snow Depth Not available.
5:39 AM 5:54 PM
Waning Crescent, 21% visible
METAR YSSY 260700Z 18011KT 9999 FEW045 BKN065 17/08 Q1010 NOSIG
Pressure 29.83 in
Visibility 6.2 miles
Clouds Few 4500 ft
Mostly Cloudy 6500 ft
Dew Point 52 °F
Humidity 65%
Rainfall 0.00 in
Snow Depth Not available.
5:39 AM 5:54 PM
Waning Crescent, 21% visible
METAR YSSY 260700Z 18011KT 9999 FEW045 BKN065 17/08 Q1010 NOSIG

10-Day Weather Forecast

Almanac

Astronomy

Sep. 26, 2016 Rise Set
Actual Time
Civil Twilight
Nautical Twilight
Astronomical Twilight
Moon
Length of Visible Light
Length of Day
Tomorrow will be .
, % of the Moon is Illuminated

Today's Extremes

Country Highs Country Lows

Community

WunderPhotos

Upload Photos

1,941,853 photos uploaded!

WunderBlog® & News

Nearby

Air Quality

  Air Quality AQ Index Pollutant
Not available.

Snow Depth

Station Depth Elevation

Earthquake Activity

City Distance Mag. Time & Date
Minimum magnitude displayed is 2.5.

Coastal Water Temperatures

Place Temperature

Stations

Nearby Weather Stations

Station Location Temp. Windchill Dew Point Humidity Wind Precip. Elev Updated Type